Time;durP1;ratioP1;P1;durP2;ratioP2;P2;SDS_P1;SDS_P2;PMS_P1;PMS_P2;Temp;Humidity;BMP_temperature;BMP_pressure;BME280_temperature;BME280_humidity;BME280_pressure;Samples;Min_cycle;Max_cycle;Signal;HPM_P1;HPM_P2
2021/12/01 13:15:45;;;;;;;17.52;7.68;;;4.70;99.90;;;;;;5027494;28;20104;-53
2021/12/01 13:18:17;;;;;;;17.60;8.05;;;4.70;99.90;;;;;;5022550;28;20444;-53
2021/12/01 13:20:49;;;;;;;19.38;8.13;;;4.70;99.90;;;;;;5012488;28;20062;-53
2021/12/01 13:23:18;;;;;;;29.58;8.13;;;4.80;99.90;;;;;;5012925;28;20117;-53
2021/12/01 13:26:07;;;;;;;19.73;8.68;;;4.80;99.90;;;;;;5031191;28;20018;-53
2021/12/01 13:28:37;;;;;;;16.75;7.95;;;4.80;99.90;;;;;;5031246;28;20044;-54
2021/12/01 13:31:26;;;;;;;19.60;8.32;;;4.80;99.90;;;;;;5031285;28;20540;-53
2021/12/01 13:34:08;;;;;;;19.17;8.25;;;4.90;99.90;;;;;;5030403;28;20497;-54
2021/12/01 13:36:39;;;;;;;18.80;8.40;;;4.90;99.90;;;;;;5018602;28;20088;-52
2021/12/01 13:39:07;;;;;;;17.92;8.38;;;4.80;99.90;;;;;;5011325;28;20025;-54
2021/12/01 13:41:38;;;;;;;22.02;8.57;;;4.90;99.90;;;;;;5011272;28;20010;-53
2021/12/01 13:44:10;;;;;;;19.45;8.45;;;4.90;99.90;;;;;;5011370;28;20050;-53
2021/12/01 13:46:36;;;;;;;21.58;8.70;;;4.90;99.90;;;;;;5011307;28;20093;-54
2021/12/01 13:49:02;;;;;;;20.10;9.23;;;5.00;99.90;;;;;;5011257;28;20106;-54
2021/12/01 13:51:34;;;;;;;21.42;9.40;;;4.90;99.90;;;;;;5011384;28;20018;-54
2021/12/01 13:54:11;;;;;;;20.80;9.00;;;4.90;99.90;;;;;;5011146;28;20153;-53
2021/12/01 13:56:37;;;;;;;20.77;9.90;;;4.90;99.90;;;;;;5011434;28;20030;-54
2021/12/01 13:59:03;;;;;;;22.55;9.90;;;5.00;99.90;;;;;;5011115;28;20030;-53
2021/12/01 14:01:29;;;;;;;21.80;9.25;;;5.00;99.90;;;;;;5011151;28;20014;-54
2021/12/01 14:03:55;;;;;;;23.02;9.77;;;5.10;99.90;;;;;;5010843;28;20053;-53
2021/12/01 14:06:27;;;;;;;23.42;10.18;;;5.00;99.90;;;;;;5011389;28;20068;-53
2021/12/01 14:09:09;;;;;;;22.05;8.88;;;5.00;99.90;;;;;;5011137;28;20119;-54
2021/12/01 14:11:39;;;;;;;19.98;9.55;;;5.00;99.90;;;;;;5011148;28;20045;-54
2021/12/01 14:14:09;;;;;;;23.90;10.52;;;5.00;99.90;;;;;;5030687;28;20381;-54
2021/12/01 14:16:36;;;;;;;22.35;9.90;;;5.00;99.90;;;;;;5037149;28;20049;-54
2021/12/01 14:19:04;;;;;;;23.45;10.88;;;5.00;99.90;;;;;;5054172;28;20373;-53
2021/12/01 14:21:34;;;;;;;19.67;9.82;;;5.10;99.90;;;;;;5054354;28;20037;-53
2021/12/01 14:24:10;;;;;;;27.27;11.35;;;5.10;99.90;;;;;;5054396;28;20109;-53
2021/12/01 14:26:39;;;;;;;28.50;10.70;;;5.00;99.90;;;;;;5053269;28;20200;-54
2021/12/01 14:29:11;;;;;;;20.00;8.88;;;5.10;99.90;;;;;;5036402;28;20024;-54
2021/12/01 14:31:38;;;;;;;24.75;11.32;;;5.10;99.90;;;;;;5054344;28;20100;-54
2021/12/01 14:34:05;;;;;;;21.50;9.82;;;5.20;99.90;;;;;;5054193;28;20017;-53
2021/12/01 14:36:31;;;;;;;;;;;5.20;99.90;;;;;;5054364;28;20054;-53
2021/12/01 14:38:58;;;;;;;21.58;8.75;;;5.20;99.90;;;;;;5054296;28;19951;-54
2021/12/01 14:41:23;;;;;;;16.48;8.20;;;5.30;99.90;;;;;;5054040;28;20029;-53
2021/12/01 14:43:58;;;;;;;18.73;8.40;;;5.30;99.90;;;;;;5053937;28;20060;-54
2021/12/01 14:46:27;;;;;;;22.48;9.77;;;5.30;99.90;;;;;;5054156;28;20029;-53
2021/12/01 14:49:06;;;;;;;22.10;9.25;;;5.30;99.90;;;;;;5053960;28;20017;-54
2021/12/01 14:51:45;;;;;;;21.77;9.55;;;5.30;99.90;;;;;;5054164;28;20082;-54
2021/12/01 14:54:20;;;;;;;16.75;7.82;;;5.40;99.90;;;;;;5053757;28;20032;-54
2021/12/01 14:56:58;;;;;;;19.33;8.70;;;5.40;99.90;;;;;;5053659;28;20086;-53
2021/12/01 14:59:25;;;;;;;19.00;8.80;;;5.40;99.90;;;;;;5053745;28;20033;-53
2021/12/01 15:02:16;;;;;;;16.63;6.70;;;5.60;99.90;;;;;;5035896;28;20473;-54
2021/12/01 15:05:23;;;;;;;21.33;8.07;;;5.60;99.90;;;;;;5038034;28;20045;-54
2021/12/01 15:08:14;;;;;;;14.70;6.65;;;5.60;99.90;;;;;;4933639;29;20032;-54
2021/12/01 15:10:48;;;;;;;14.50;6.47;;;5.60;99.90;;;;;;4929242;29;20495;-54
2021/12/01 15:13:20;;;;;;;16.95;6.97;;;5.90;99.90;;;;;;5014527;28;20075;-54
2021/12/01 15:15:58;;;;;;;16.90;5.90;;;5.90;99.90;;;;;;5053478;28;20022;-54
2021/12/01 15:18:55;;;;;;;16.70;7.13;;;6.00;99.90;;;;;;5008778;28;20046;-54
2021/12/01 15:21:22;;;;;;;12.68;5.80;;;5.90;99.90;;;;;;4980578;28;20510;-53
2021/12/01 15:23:59;;;;;;;15.07;6.30;;;6.00;99.90;;;;;;4994043;28;20030;-53
2021/12/01 15:26:41;;;;;;;16.83;5.97;;;6.10;99.90;;;;;;4993937;28;20023;-53
2021/12/01 15:29:13;;;;;;;11.93;6.22;;;6.10;99.90;;;;;;4991795;28;20026;-53
2021/12/01 15:32:06;;;;;;;13.65;7.15;;;6.00;99.90;;;;;;4993622;28;20034;-53
2021/12/01 15:34:33;;;;;;;14.70;7.32;;;6.10;99.90;;;;;;4990995;28;20042;-53
2021/12/01 15:36:58;;;;;;;17.13;7.38;;;6.10;99.90;;;;;;4993629;28;20054;-53
2021/12/01 15:39:26;;;;;;;16.17;7.40;;;6.10;99.90;;;;;;4993604;28;20062;-54
2021/12/01 15:41:57;;;;;;;20.25;9.05;;;6.00;99.90;;;;;;4993530;28;20069;-54
2021/12/01 15:44:24;;;;;;;17.75;8.10;;;6.10;99.90;;;;;;4993734;28;20054;-53
2021/12/01 15:46:50;;;;;;;15.07;7.22;;;6.10;99.90;;;;;;4993405;28;20023;-53
2021/12/01 15:49:17;;;;;;;19.00;8.75;;;6.10;99.90;;;;;;4993577;28;20050;-53
2021/12/01 15:51:43;;;;;;;14.30;7.32;;;6.10;99.90;;;;;;4993411;28;20041;-53
2021/12/01 15:54:09;;;;;;;17.83;8.20;;;6.20;99.90;;;;;;4993062;28;20494;-53
2021/12/01 15:56:36;;;;;;;15.10;6.50;;;6.30;99.90;;;;;;5003665;28;20029;-53
2021/12/01 15:59:03;;;;;;;;;;;6.30;99.90;;;;;;5009749;28;20081;-53
2021/12/01 16:01:28;;;;;;;15.05;6.75;;;6.30;99.90;;;;;;5001246;28;20424;-53
2021/12/01 16:03:54;;;;;;;18.23;8.95;;;6.30;99.90;;;;;;5002714;28;20097;-54
2021/12/01 16:06:20;;;;;;;13.30;6.13;;;6.30;99.90;;;;;;4999582;28;20030;-53
2021/12/01 16:08:48;;;;;;;13.63;6.35;;;6.30;99.90;;;;;;5001311;28;20026;-53
2021/12/01 16:11:14;;;;;;;13.13;5.88;;;6.40;99.90;;;;;;4998219;28;20025;-54
2021/12/01 16:13:41;;;;;;;14.80;6.07;;;6.50;99.90;;;;;;5007925;28;20382;-52
2021/12/01 16:16:12;;;;;;;12.02;5.05;;;6.40;99.90;;;;;;4998133;28;20495;-53
2021/12/01 16:18:37;;;;;;;12.32;5.25;;;6.40;99.90;;;;;;5027583;28;20082;-53
2021/12/01 16:21:03;;;;;;;9.75;4.80;;;6.40;99.90;;;;;;5051681;28;20017;-53
2021/12/01 16:23:29;;;;;;;14.45;6.45;;;6.40;99.90;;;;;;5051359;28;20032;-53
2021/12/01 16:25:56;;;;;;;15.82;7.35;;;6.40;99.90;;;;;;5051908;28;20017;-53
2021/12/01 16:28:23;;;;;;;;;;;6.40;99.90;;;;;;5052577;28;20021;-53
2021/12/01 16:30:49;;;;;;;19.83;7.75;;;6.40;99.90;;;;;;5033488;28;19905;-52
2021/12/01 16:33:15;;;;;;;17.67;7.95;;;6.40;99.90;;;;;;5052046;28;20028;-53
2021/12/01 16:35:41;;;;;;;12.32;5.90;;;6.40;99.90;;;;;;5032580;28;20366;-53
2021/12/01 16:38:11;;;;;;;10.82;5.32;;;6.50;99.90;;;;;;5040031;28;20034;-53
2021/12/01 16:40:39;;;;;;;13.80;6.30;;;6.60;99.90;;;;;;5039311;28;20041;-53
2021/12/01 16:43:09;;;;;;;11.75;5.40;;;6.50;99.90;;;;;;5040727;28;20020;-52
2021/12/01 16:45:35;;;;;;;15.43;6.07;;;6.60;99.90;;;;;;5040994;28;20047;-54
2021/12/01 16:48:02;;;;;;;12.88;6.57;;;6.60;99.90;;;;;;5039457;28;20453;-53
2021/12/01 16:50:30;;;;;;;12.90;6.03;;;6.60;99.90;;;;;;5040175;28;20103;-53
2021/12/01 16:52:56;;;;;;;15.13;6.50;;;6.60;99.90;;;;;;5024169;28;20259;-53
2021/12/01 16:55:23;;;;;;;17.92;7.90;;;6.70;99.90;;;;;;5039416;28;20141;-53
2021/12/01 16:57:49;;;;;;;;;;;6.70;99.90;;;;;;5024575;28;20366;-53
2021/12/01 17:00:20;;;;;;;12.70;5.82;;;6.70;99.90;;;;;;5038887;28;19913;-53
2021/12/01 17:02:46;;;;;;;15.75;6.90;;;6.70;99.90;;;;;;5041037;28;20021;-54
2021/12/01 17:05:15;;;;;;;20.77;8.07;;;6.80;99.90;;;;;;5023016;28;20022;-55
2021/12/01 17:10:14;;;;;;;19.48;7.35;;;6.80;99.90;;;;;;5036177;28;20548;-53
2021/12/01 17:12:42;;;;;;;16.08;6.57;;;6.90;99.90;;;;;;5039286;28;20104;-54
2021/12/01 17:15:08;;;;;;;14.35;6.25;;;6.90;99.90;;;;;;5039742;28;20033;-53
2021/12/01 17:17:34;;;;;;;21.25;7.72;;;7.00;99.90;;;;;;5056055;28;20109;-53
2021/12/01 17:20:05;;;;;;;17.30;7.75;;;7.00;99.90;;;;;;5056361;28;20609;-53
2021/12/01 17:22:31;;;;;;;14.45;6.68;;;7.00;99.90;;;;;;5047750;28;20033;-53
2021/12/01 17:24:57;;;;;;;17.52;7.85;;;7.00;99.90;;;;;;5024714;28;20013;-52
2021/12/01 17:27:24;;;;;;;19.70;8.98;;;7.00;99.90;;;;;;5038857;28;20382;-53
2021/12/01 17:29:56;;;;;;;15.13;7.72;;;7.00;99.90;;;;;;5035005;28;20021;-53
2021/12/01 17:32:22;;;;;;;15.18;7.78;;;7.00;99.90;;;;;;5031632;28;20420;-53
2021/12/01 17:34:49;;;;;;;22.45;9.48;;;7.00;99.90;;;;;;5031540;28;20473;-52
2021/12/01 17:37:15;;;;;;;20.20;8.93;;;6.90;99.90;;;;;;5034257;28;20116;-53
2021/12/01 17:39:43;;;;;;;20.65;9.38;;;7.00;99.90;;;;;;5038879;28;20029;-53
2021/12/01 17:42:10;;;;;;;20.10;9.35;;;7.00;99.90;;;;;;5043485;28;20160;-54
2021/12/01 17:44:37;;;;;;;;;;;7.00;99.90;;;;;;5023376;28;20085;-52
2021/12/01 17:47:04;;;;;;;20.90;9.60;;;7.00;99.90;;;;;;5016193;28;19936;-52
2021/12/01 17:49:31;;;;;;;20.10;9.18;;;7.10;99.90;;;;;;5030454;28;20531;-53
2021/12/01 17:51:58;;;;;;;24.55;8.98;;;7.10;99.90;;;;;;5030908;28;20219;-52
2021/12/01 17:54:24;;;;;;;19.23;8.98;;;7.10;99.90;;;;;;5034457;28;20125;-53
2021/12/01 17:56:51;;;;;;;16.55;7.47;;;7.20;99.90;;;;;;5035955;28;20079;-53
2021/12/01 17:59:18;;;;;;;21.02;9.13;;;7.20;99.90;;;;;;5034113;28;20029;-53
2021/12/01 18:01:44;;;;;;;22.38;9.95;;;7.20;99.90;;;;;;5035604;28;20158;-53
2021/12/01 18:04:13;;;;;;;13.90;6.13;;;7.10;99.90;;;;;;5035778;28;20024;-54
2021/12/01 18:06:40;;;;;;;16.77;6.30;;;7.30;99.90;;;;;;5049076;28;20147;-54
2021/12/01 18:09:05;;;;;;;14.27;6.43;;;7.40;99.90;;;;;;5042599;28;20037;-53
2021/12/01 18:11:31;;;;;;;17.15;6.47;;;7.30;99.90;;;;;;5012518;28;20021;-54
2021/12/01 18:13:57;;;;;;;25.95;9.98;;;7.50;99.90;;;;;;5035580;28;20045;-52
2021/12/01 18:16:23;;;;;;;15.77;7.25;;;7.50;99.90;;;;;;5042522;28;20041;-53
2021/12/01 18:18:49;;;;;;;16.48;6.38;;;7.50;99.90;;;;;;5044818;28;20098;-53
2021/12/01 18:21:15;;;;;;;14.20;5.78;;;7.60;99.90;;;;;;5023931;28;20029;-52
2021/12/01 18:23:41;;;;;;;17.02;5.97;;;7.60;99.90;;;;;;5043212;28;20071;-53
2021/12/01 18:26:06;;;;;;;13.75;5.53;;;7.70;99.90;;;;;;5026767;28;20024;-52
2021/12/01 18:28:32;;;;;;;14.90;6.25;;;7.70;99.90;;;;;;5074276;28;20065;-53
2021/12/01 18:30:59;;;;;;;14.43;5.47;;;7.70;99.90;;;;;;5074562;28;20028;-54
2021/12/01 18:33:25;;;;;;;11.13;5.32;;;7.70;99.90;;;;;;5074546;28;20047;-53
2021/12/01 18:35:51;;;;;;;12.05;4.85;;;7.60;99.90;;;;;;5049974;28;20024;-54
2021/12/01 18:38:16;;;;;;;16.38;6.25;;;7.70;99.90;;;;;;5041962;28;20029;-53
2021/12/01 18:40:42;;;;;;;13.98;4.90;;;7.60;99.90;;;;;;5042671;28;20037;-58
2021/12/01 18:43:08;;;;;;;11.50;4.50;;;7.70;99.90;;;;;;5037397;28;20024;-57
2021/12/01 18:45:35;;;;;;;11.15;5.00;;;7.70;99.90;;;;;;5052909;28;20025;-57
2021/12/01 18:48:01;;;;;;;16.02;6.78;;;7.80;99.90;;;;;;5052240;28;20025;-58
2021/12/01 18:50:28;;;;;;;13.63;5.75;;;7.90;99.90;;;;;;5050719;28;20059;-58
2021/12/01 18:52:54;;;;;;;14.35;6.75;;;7.90;99.90;;;;;;5052723;28;20100;-58
2021/12/01 18:55:21;;;;;;;16.70;6.87;;;7.90;99.90;;;;;;5052529;28;20401;-58
2021/12/01 18:57:47;;;;;;;14.63;6.18;;;7.90;99.90;;;;;;5042449;28;20038;-59
2021/12/01 19:00:16;;;;;;;14.35;5.70;;;7.90;99.90;;;;;;5044007;28;20021;-58
2021/12/01 19:02:43;;;;;;;20.90;7.95;;;7.90;99.90;;;;;;5041078;28;20098;-60
2021/12/01 19:05:10;;;;;;;22.15;6.13;;;7.90;99.90;;;;;;5014792;28;20072;-58
2021/12/01 19:07:36;;;;;;;14.20;5.70;;;8.00;99.90;;;;;;5041768;28;20059;-58
2021/12/01 19:10:08;;;;;;;13.47;5.63;;;7.90;99.90;;;;;;5038404;28;20025;-57
2021/12/01 19:12:34;;;;;;;16.52;7.32;;;8.00;99.90;;;;;;5052566;28;20309;-57
2021/12/01 19:15:00;;;;;;;12.68;5.60;;;8.00;99.90;;;;;;5052215;28;20029;-58
2021/12/01 19:17:26;;;;;;;14.32;6.30;;;8.00;99.90;;;;;;5034225;28;20132;-58
2021/12/01 19:19:53;;;;;;;14.63;6.57;;;8.00;99.90;;;;;;5052321;28;20018;-58
2021/12/01 19:22:20;;;;;;;15.70;6.75;;;7.90;99.90;;;;;;5052301;28;20024;-58
2021/12/01 19:24:47;;;;;;;24.85;9.68;;;8.10;99.90;;;;;;5022572;28;20033;-58
2021/12/01 19:27:12;;;;;;;26.65;9.95;;;8.00;99.90;;;;;;5049833;28;20028;-58
2021/12/01 19:29:38;;;;;;;20.35;8.13;;;8.00;99.90;;;;;;5045412;28;20477;-59
2021/12/01 19:32:05;;;;;;;27.92;10.60;;;8.00;99.90;;;;;;5039685;28;20151;-56
2021/12/01 19:34:31;;;;;;;20.33;9.02;;;8.00;99.90;;;;;;5041892;28;20485;-57
2021/12/01 19:36:59;;;;;;;25.92;9.45;;;8.00;99.90;;;;;;5039810;28;20048;-61
2021/12/01 19:39:25;;;;;;;30.42;11.85;;;8.00;99.90;;;;;;5021938;28;20025;-58
2021/12/01 19:41:51;;;;;;;30.23;12.17;;;8.00;99.90;;;;;;5041138;28;20021;-57
2021/12/01 19:44:20;;;;;;;32.13;10.95;;;8.00;99.90;;;;;;5039797;28;20044;-57
2021/12/01 19:46:46;;;;;;;23.48;9.85;;;7.90;99.90;;;;;;5039311;28;20029;-58
2021/12/01 19:49:13;;;;;;;21.95;10.32;;;8.00;99.90;;;;;;5040865;28;20488;-57
2021/12/01 19:51:39;;;;;;;28.40;10.98;;;8.00;99.90;;;;;;5024260;28;20028;-59
2021/12/01 19:54:05;;;;;;;24.52;10.85;;;8.00;99.90;;;;;;5041140;28;20025;-59
2021/12/01 19:56:31;;;;;;;25.70;9.38;;;7.90;99.90;;;;;;5041483;28;20534;-58
2021/12/01 19:58:57;;;;;;;21.95;10.38;;;7.90;99.90;;;;;;5040710;28;20032;-58
2021/12/01 20:01:23;;;;;;;22.50;9.50;;;7.80;99.90;;;;;;5040011;28;20045;-58
2021/12/01 20:03:50;;;;;;;22.15;9.02;;;7.80;99.90;;;;;;5021556;28;20017;-59
2021/12/01 20:06:16;;;;;;;17.95;7.97;;;7.80;99.90;;;;;;5040454;28;20028;-59
2021/12/01 20:08:47;;;;;;;23.27;9.17;;;7.90;99.90;;;;;;5034812;28;20060;-58
2021/12/01 20:11:13;;;;;;;31.85;11.75;;;7.80;99.90;;;;;;5031295;28;20262;-58
2021/12/01 20:13:39;;;;;;;30.63;11.25;;;7.80;99.90;;;;;;5031769;28;20025;-58
2021/12/01 20:16:08;;;;;;;21.67;8.45;;;7.80;99.90;;;;;;5030002;28;20052;-58
2021/12/01 20:18:35;;;;;;;20.98;8.27;;;7.80;99.90;;;;;;5031348;28;20068;-58
2021/12/01 20:21:03;;;;;;;19.65;7.13;;;7.80;99.90;;;;;;5031332;28;20035;-57
2021/12/01 20:23:29;;;;;;;16.15;6.97;;;7.80;99.90;;;;;;5030937;28;20104;-58
2021/12/01 20:25:55;;;;;;;17.40;7.57;;;7.80;99.90;;;;;;5030838;28;20556;-58
2021/12/01 20:28:21;;;;;;;13.90;6.40;;;7.80;99.90;;;;;;5033795;28;20029;-59
2021/12/01 20:30:47;;;;;;;19.95;8.00;;;7.90;99.90;;;;;;5025931;28;20037;-58
2021/12/01 20:33:15;;;;;;;18.35;6.80;;;7.90;99.90;;;;;;5043160;28;20488;-58
2021/12/01 20:35:42;;;;;;;;;;;7.90;99.90;;;;;;5038276;28;20025;-59
2021/12/01 20:38:08;;;;;;;18.98;8.98;;;7.90;99.90;;;;;;5047359;28;19917;-59
2021/12/01 20:40:37;;;;;;;17.58;8.65;;;7.90;99.90;;;;;;5043412;28;20017;-58
2021/12/01 20:43:04;;;;;;;19.17;8.10;;;8.00;99.90;;;;;;5039357;28;20057;-59
2021/12/01 20:45:42;;;;;;;19.98;7.63;;;8.00;99.90;;;;;;5039557;28;20017;-59
2021/12/01 20:53:28;;;;;;;20.80;7.78;;;8.00;99.90;;;;;;5038321;28;20163;-59
2021/12/01 21:03:51;;;;;;;21.65;8.65;;;8.00;99.90;;;;;;5040838;28;20053;-59
2021/12/01 21:06:18;;;;;;;19.02;7.75;;;8.00;99.90;;;;;;5039990;28;20072;-58
2021/12/01 21:08:45;;;;;;;17.92;7.82;;;8.00;99.90;;;;;;5039453;28;20036;-59
2021/12/01 21:11:17;;;;;;;20.50;8.90;;;8.00;99.90;;;;;;5038896;28;20084;-59
2021/12/01 21:13:44;;;;;;;23.33;8.93;;;8.00;99.90;;;;;;5039477;28;20024;-58
2021/12/01 21:16:12;;;;;;;18.90;7.07;;;8.00;99.90;;;;;;5040404;28;20037;-59
2021/12/01 21:18:40;;;;;;;19.83;7.95;;;8.10;99.90;;;;;;5039917;28;20040;-59
2021/12/01 21:21:12;;;;;;;20.98;8.35;;;8.00;99.90;;;;;;5038609;28;20025;-58
2021/12/01 21:23:48;;;;;;;43.83;21.23;;;8.00;99.90;;;;;;5039858;28;20017;-58
2021/12/01 21:26:16;;;;;;;19.05;7.68;;;8.00;99.90;;;;;;5015534;28;20478;-58
2021/12/01 21:28:44;;;;;;;17.30;7.20;;;8.00;99.90;;;;;;5039086;28;20056;-58
2021/12/01 21:31:14;;;;;;;18.73;7.65;;;8.10;99.90;;;;;;5040569;28;20021;-58
2021/12/01 21:33:52;;;;;;;18.70;7.80;;;8.00;99.90;;;;;;5039751;28;20066;-58
2021/12/01 21:36:21;;;;;;;16.80;7.95;;;8.10;99.90;;;;;;5038937;28;20049;-58
2021/12/01 21:38:49;;;;;;;23.77;8.10;;;8.00;99.90;;;;;;5015564;28;20358;-58
2021/12/01 21:41:16;;;;;;;20.35;7.07;;;8.10;99.90;;;;;;5038661;28;20025;-58
2021/12/01 21:43:46;;;;;;;22.83;7.68;;;8.10;99.90;;;;;;5039756;28;20070;-58
2021/12/01 21:46:13;;;;;;;15.43;7.53;;;8.10;99.90;;;;;;5040263;28;20031;-57
2021/12/01 21:48:39;;;;;;;15.25;5.85;;;8.10;99.90;;;;;;5039577;28;20022;-58
2021/12/01 21:51:11;;;;;;;14.82;6.40;;;8.10;99.90;;;;;;5021660;28;20028;-58
2021/12/01 21:53:41;;;;;;;15.85;6.03;;;8.10;99.90;;;;;;5039321;28;20025;-58
2021/12/01 21:56:08;;;;;;;13.60;5.45;;;8.20;99.90;;;;;;5040728;28;20056;-57
2021/12/01 21:58:34;;;;;;;16.42;6.03;;;8.20;99.90;;;;;;5041284;28;20033;-58
2021/12/01 22:01:02;;;;;;;15.90;6.90;;;8.20;99.90;;;;;;5039346;28;20025;-58
2021/12/01 22:03:31;;;;;;;14.57;5.97;;;8.20;99.90;;;;;;5043964;28;20025;-57
2021/12/01 22:06:03;;;;;;;13.02;5.00;;;8.20;99.90;;;;;;5050704;28;20024;-59
2021/12/01 22:08:30;;;;;;;17.58;6.22;;;8.20;99.90;;;;;;5035814;28;20032;-58
2021/12/01 22:10:56;;;;;;;11.73;4.97;;;8.20;99.90;;;;;;5035563;28;20025;-58
2021/12/01 22:13:23;;;;;;;13.63;5.00;;;8.20;99.90;;;;;;5041349;28;20388;-57
2021/12/01 22:15:50;;;;;;;15.55;5.43;;;8.30;99.90;;;;;;5040104;28;20676;-57
2021/12/01 22:18:17;;;;;;;13.13;5.53;;;8.20;99.90;;;;;;5038090;28;20496;-58
2021/12/01 22:20:45;;;;;;;12.43;4.72;;;8.20;99.90;;;;;;5039149;28;20025;-58
2021/12/01 22:23:13;;;;;;;15.15;5.20;;;8.20;99.90;;;;;;5040562;28;20038;-58
2021/12/01 22:25:41;;;;;;;12.73;4.80;;;8.20;99.90;;;;;;5038319;28;20014;-58
2021/12/01 22:28:08;;;;;;;14.10;5.07;;;8.20;99.90;;;;;;5038316;28;20028;-58
2021/12/01 22:30:40;;;;;;;14.38;5.68;;;8.20;99.90;;;;;;5040094;28;20024;-58
2021/12/01 22:33:06;;;;;;;15.30;6.72;;;8.20;99.90;;;;;;5039761;28;20021;-58
2021/12/01 22:35:33;;;;;;;15.65;6.60;;;8.20;99.90;;;;;;5020526;28;20482;-60
2021/12/01 22:37:59;;;;;;;14.38;5.78;;;8.10;99.90;;;;;;5040228;28;20037;-58
2021/12/01 22:40:28;;;;;;;14.77;6.40;;;8.20;99.90;;;;;;5042879;28;20025;-57
2021/12/01 22:42:58;;;;;;;16.98;6.88;;;8.10;99.90;;;;;;5041761;28;20108;-57
2021/12/01 22:45:25;;;;;;;18.27;7.95;;;8.10;99.90;;;;;;5042657;28;20100;-57
2021/12/01 22:47:55;;;;;;;14.63;7.30;;;8.10;99.90;;;;;;5043229;28;20018;-57
2021/12/01 22:50:24;;;;;;;23.80;8.40;;;8.10;99.90;;;;;;5025803;28;20017;-57
2021/12/01 22:52:51;;;;;;;18.90;7.22;;;8.10;99.90;;;;;;5043328;28;20022;-57
2021/12/01 22:55:19;;;;;;;63.70;34.28;;;8.10;99.90;;;;;;5041543;28;20021;-57
2021/12/01 22:57:56;;;;;;;18.05;8.13;;;8.10;99.90;;;;;;5036393;28;20042;-58
2021/12/01 23:00:25;;;;;;;17.33;6.60;;;8.10;99.90;;;;;;5026258;28;20485;-57
2021/12/01 23:02:55;;;;;;;19.83;7.35;;;8.10;99.90;;;;;;5036910;28;20020;-58
2021/12/01 23:05:26;;;;;;;15.40;6.47;;;8.10;99.90;;;;;;5041399;28;20544;-57
2021/12/01 23:07:54;;;;;;;14.52;6.18;;;8.10;99.90;;;;;;5041633;28;20047;-58
2021/12/01 23:10:22;;;;;;;15.20;6.25;;;8.10;99.90;;;;;;5043456;28;20027;-58
2021/12/01 23:12:52;;;;;;;16.92;6.68;;;8.10;99.90;;;;;;5042236;28;20076;-57
2021/12/01 23:15:20;;;;;;;18.00;6.05;;;8.10;99.90;;;;;;5023424;28;20021;-58
2021/12/01 23:17:45;;;;;;;11.65;5.32;;;8.00;99.90;;;;;;5041929;28;20037;-58
2021/12/01 23:20:11;;;;;;;14.70;6.22;;;8.00;99.90;;;;;;5042941;28;20615;-58
2021/12/01 23:28:06;;;;;;;14.07;5.90;;;8.00;99.90;;;;;;5041758;28;20187;-58
2021/12/01 23:30:33;;;;;;;11.65;6.38;;;8.10;99.90;;;;;;5041624;28;20145;-57
2021/12/01 23:33:12;;;;;;;12.05;5.22;;;8.10;99.90;;;;;;5040769;28;20025;-58
2021/12/01 23:35:39;;;;;;;12.77;5.45;;;8.10;99.90;;;;;;5040113;28;20473;-58
2021/12/01 23:38:05;;;;;;;;;;;8.00;99.90;;;;;;5043700;28;20024;-58
2021/12/01 23:40:32;;;;;;;15.73;5.18;;;7.90;99.90;;;;;;5023902;28;19916;-59
2021/12/01 23:42:58;;;;;;;16.67;6.40;;;7.90;99.90;;;;;;5041317;28;20017;-58
2021/12/01 23:52:59;;;;;;;11.07;4.60;;;8.00;99.90;;;;;;5042130;28;20071;-58
2021/12/01 23:55:26;;;;;;;9.65;4.13;;;8.00;99.90;;;;;;5042445;28;20427;-58
2021/12/01 23:57:52;;;;;;;9.10;4.17;;;8.00;99.90;;;;;;5043869;28;20079;-58
